Time;durP1;ratioP1;P1;durP2;ratioP2;P2;SDS_P1;SDS_P2;PMS_P1;PMS_P2;Temp;Humidity;BMP_temperature;BMP_pressure;BME280_temperature;BME280_humidity;BME280_pressure;Samples;Min_cycle;Max_cycle;Signal;HPM_P1;HPM_P2
2023/10/04 00:01:38;;;;;;;8.90;7.07;;;;;;;12.06;82.45;99251.16;5036916;28;20037;-71
2023/10/04 00:04:05;;;;;;;8.55;6.60;;;;;;;12.02;82.68;99249.94;5071388;28;20029;-71
2023/10/04 00:06:33;;;;;;;7.45;6.18;;;;;;;12.06;83.01;99253.84;5036394;28;20119;-71
2023/10/04 00:08:59;;;;;;;8.00;5.18;;;;;;;12.05;82.93;99254.88;5070207;28;20481;-71
2023/10/04 00:11:26;;;;;;;7.57;6.07;;;;;;;12.05;82.64;99246.78;5037122;28;20071;-71
2023/10/04 00:13:52;;;;;;;6.03;4.70;;;;;;;12.12;82.51;99250.22;5053574;28;20048;-72
2023/10/04 00:16:18;;;;;;;8.07;5.30;;;;;;;12.20;83.01;99265.28;5054715;28;20078;-73
2023/10/04 00:18:43;;;;;;;9.55;5.45;;;;;;;12.23;82.67;99260.25;5038425;28;20044;-73
2023/10/04 00:21:10;;;;;;;8.57;4.60;;;;;;;12.36;82.83;99281.69;5054638;28;20102;-71
2023/10/04 00:23:36;;;;;;;8.43;4.97;;;;;;;12.37;82.67;99271.69;5038151;28;20407;-74
2023/10/04 00:26:02;;;;;;;7.80;4.40;;;;;;;12.38;82.57;99271.47;5053264;28;20028;-74
2023/10/04 00:28:29;;;;;;;7.18;4.47;;;;;;;12.24;82.96;99248.41;5037920;28;20067;-74
2023/10/04 00:30:54;;;;;;;7.15;4.30;;;;;;;12.25;82.57;99241.94;5055392;28;20012;-73
2023/10/04 00:33:20;;;;;;;11.15;4.40;;;;;;;12.40;83.07;99274.75;5054880;28;20035;-72
2023/10/04 00:35:46;;;;;;;7.18;4.15;;;;;;;12.41;82.70;99273.72;5054543;28;20158;-74
2023/10/04 00:38:15;;;;;;;7.93;4.97;;;;;;;12.29;83.18;99272.03;5036905;28;20078;-73
2023/10/04 00:40:41;;;;;;;9.60;4.95;;;;;;;12.11;82.78;99272.88;5054575;28;20416;-71
2023/10/04 00:43:10;;;;;;;9.65;5.28;;;;;;;11.86;82.66;99257.81;5052995;28;20028;-71
2023/10/04 00:45:36;;;;;;;8.05;5.18;;;;;;;11.79;83.29;99279.50;5070843;28;20024;-71
2023/10/04 00:48:11;;;;;;;8.95;5.32;;;;;;;11.69;83.34;99260.34;5055664;28;20482;-72
2023/10/04 00:50:37;;;;;;;9.65;5.80;;;;;;;11.84;83.59;99271.56;5045641;28;20037;-72
2023/10/04 00:53:05;;;;;;;7.50;5.47;;;;;;;11.88;83.87;99261.94;5024886;28;20388;-69
2023/10/04 00:55:32;;;;;;;7.82;5.70;;;;;;;11.97;83.29;99257.88;5033211;28;20416;-69
2023/10/04 00:57:59;;;;;;;9.35;5.40;;;;;;;11.80;83.23;99259.56;5032036;28;20032;-70
2023/10/04 01:00:25;;;;;;;7.28;5.07;;;;;;;11.84;83.86;99260.75;5045905;28;20123;-70
2023/10/04 01:02:52;;;;;;;7.78;5.18;;;;;;;11.84;83.83;99260.75;5070865;28;20068;-70
2023/10/04 01:05:22;;;;;;;9.63;5.68;;;;;;;11.88;84.01;99266.56;5051603;28;20071;-71
2023/10/04 01:07:49;;;;;;;6.82;5.22;;;;;;;11.91;83.78;99283.09;5023753;28;20445;-71
2023/10/04 01:10:15;;;;;;;8.57;5.18;;;;;;;11.90;84.06;99286.88;5050411;28;20550;-71
2023/10/04 01:12:46;;;;;;;8.50;5.88;;;;;;;11.67;83.60;99281.25;5056519;28;20036;-71
2023/10/04 01:15:33;;;;;;;8.68;5.75;;;;;;;11.60;83.65;99288.59;5039926;28;20047;-72
2023/10/04 01:17:59;;;;;;;9.80;5.50;;;;;;;11.53;83.70;99291.38;5041952;28;20040;-71
2023/10/04 01:20:27;;;;;;;7.35;5.63;;;;;;;11.40;83.55;99266.41;5056103;28;20035;-72
2023/10/04 01:22:54;;;;;;;7.45;6.53;;;;;;;11.51;83.76;99276.47;5040034;28;20032;-71
2023/10/04 01:25:21;;;;;;;7.07;5.63;;;;;;;11.53;84.02;99279.75;5055963;28;20062;-72
2023/10/04 01:27:47;;;;;;;7.95;6.13;;;;;;;11.59;83.69;99287.81;5066789;28;20029;-72
2023/10/04 01:30:13;;;;;;;7.35;5.35;;;;;;;11.49;83.63;99259.69;5074192;28;20129;-72
2023/10/04 01:32:39;;;;;;;7.32;5.53;;;;;;;11.70;83.98;99278.16;5052937;28;20124;-72
2023/10/04 01:35:05;;;;;;;8.63;6.35;;;;;;;11.66;83.94;99263.44;5054122;28;20028;-73
2023/10/04 01:37:32;;;;;;;8.30;5.95;;;;;;;11.80;84.22;99281.16;5036246;28;20033;-71
2023/10/04 01:39:58;;;;;;;7.32;6.00;;;;;;;11.76;84.01;99266.47;5050586;28;20064;-70
2023/10/04 01:42:25;;;;;;;7.65;6.00;;;;;;;11.69;84.26;99246.84;5065153;28;20057;-71
2023/10/04 01:44:51;;;;;;;8.20;6.18;;;;;;;11.92;84.63;99273.97;5073685;28;20028;-70
2023/10/04 01:47:19;;;;;;;9.95;6.32;;;;;;;11.81;83.99;99239.63;5055492;28;20071;-71
2023/10/04 01:49:45;;;;;;;11.07;6.65;;;;;;;11.76;84.52;99253.78;5052337;28;20397;-72
2023/10/04 01:52:11;;;;;;;7.43;6.30;;;;;;;11.80;84.08;99270.38;5044778;28;20029;-74
2023/10/04 01:54:36;;;;;;;9.07;7.30;;;;;;;11.74;84.42;99265.84;5038683;28;20086;-70
2023/10/04 01:57:04;;;;;;;8.48;7.00;;;;;;;11.66;84.08;99255.34;5039839;28;20028;-71
2023/10/04 01:59:31;;;;;;;8.90;6.20;;;;;;;11.67;84.13;99270.47;5052486;28;20028;-69
2023/10/04 02:01:57;;;;;;;9.30;8.05;;;;;;;11.66;83.67;99268.84;5055676;28;20484;-69
2023/10/04 02:04:23;;;;;;;10.52;7.28;;;;;;;11.62;83.70;99273.03;5073663;28;20032;-69
2023/10/04 02:06:48;;;;;;;7.25;5.78;;;;;;;11.61;84.23;99266.81;5072025;28;20040;-70
2023/10/04 02:09:16;;;;;;;8.75;7.65;;;;;;;11.66;83.69;99274.25;5035725;28;20028;-71
2023/10/04 02:11:43;;;;;;;8.75;7.25;;;;;;;11.62;83.98;99263.06;5066474;28;20028;-70
2023/10/04 02:14:08;;;;;;;9.13;7.35;;;;;;;11.60;84.19;99250.84;5039028;28;20017;-70
2023/10/04 02:16:34;;;;;;;9.68;8.18;;;;;;;11.56;83.82;99242.38;5071709;28;20033;-69
2023/10/04 02:19:01;;;;;;;12.43;9.18;;;;;;;11.67;83.80;99270.47;5073419;28;20028;-69
2023/10/04 02:21:26;;;;;;;12.93;9.77;;;;;;;11.56;83.82;99260.44;5055336;28;20029;-68
2023/10/04 02:23:53;;;;;;;13.40;7.57;;;;;;;11.61;84.00;99271.38;5038562;28;20585;-68
2023/10/04 02:26:22;;;;;;;8.68;6.13;;;;;;;11.39;83.89;99227.03;5072869;28;20393;-70
2023/10/04 02:28:55;;;;;;;7.97;6.35;;;;;;;11.65;83.51;99261.78;5055161;28;20016;-68
2023/10/04 02:31:21;;;;;;;13.57;8.85;;;;;;;11.56;83.96;99257.72;5055971;28;20036;-70
2023/10/04 02:33:50;;;;;;;8.00;7.18;;;;;;;11.50;83.47;99245.16;5055253;28;20112;-71
2023/10/04 02:36:15;;;;;;;10.52;8.60;;;;;;;11.65;83.64;99272.56;5038172;28;20028;-71
2023/10/04 02:38:41;;;;;;;30.08;8.80;;;;;;;11.58;83.89;99277.22;5054846;28;20032;-70
2023/10/04 02:41:06;;;;;;;502.30;26.73;;;;;;;11.39;83.44;99256.69;5054877;28;20032;-70
2023/10/04 02:43:32;;;;;;;20.65;9.10;;;;;;;11.22;83.95;99269.09;5054979;28;20024;-71
2023/10/04 02:45:58;;;;;;;19.55;9.57;;;;;;;11.26;83.72;99276.53;5052025;28;20060;-71
2023/10/04 02:48:24;;;;;;;13.88;9.05;;;;;;;11.13;84.07;99273.97;5034656;28;20484;-71
2023/10/04 02:50:50;;;;;;;99.63;15.80;;;;;;;10.85;83.87;99236.66;5048706;28;20036;-71
2023/10/04 02:53:20;;;;;;;13.13;9.43;;;;;;;11.08;84.28;99277.28;5072286;28;20395;-71
2023/10/04 02:55:57;;;;;;;31.30;12.63;;;;;;;11.10;84.37;99291.41;5054370;28;20483;-71
2023/10/04 02:58:27;;;;;;;15.70;11.25;;;;;;;11.01;84.70;99281.13;5056041;28;20062;-71
2023/10/04 03:00:54;;;;;;;20.35;14.82;;;;;;;11.04;84.69;99286.88;5051220;28;20579;-70
2023/10/04 03:03:22;;;;;;;14.20;10.82;;;;;;;11.13;84.79;99294.69;5025317;28;20404;-70
2023/10/04 03:05:51;;;;;;;13.32;10.48;;;;;;;11.22;84.81;99298.75;5031775;28;20129;-71
2023/10/04 03:08:17;;;;;;;11.40;10.20;;;;;;;11.22;84.89;99298.75;5041793;28;20029;-71
2023/10/04 03:10:42;;;;;;;11.48;10.13;;;;;;;11.19;84.88;99300.03;5031708;28;20627;-70
2023/10/04 03:13:25;;;;;;;9.05;8.15;;;;;;;11.22;85.28;99293.38;5044940;28;20024;-69
2023/10/04 03:15:53;;;;;;;12.95;9.02;;;;;;;11.19;84.80;99277.63;5039287;28;20393;-69
2023/10/04 03:18:19;;;;;;;10.50;9.40;;;;;;;11.39;84.80;99294.47;5050728;28;20024;-70
2023/10/04 03:20:54;;;;;;;11.85;9.20;;;;;;;11.43;84.69;99296.50;5050627;28;20032;-71
2023/10/04 03:23:23;;;;;;;8.80;7.90;;;;;;;11.40;84.91;99277.22;5015344;28;20036;-74
2023/10/04 03:25:52;;;;;;;12.18;9.75;;;;;;;11.57;85.37;99297.16;5037492;28;20504;-71
2023/10/04 03:28:20;;;;;;;10.70;9.60;;;;;;;11.39;85.08;99262.09;5037061;28;20039;-71
2023/10/04 03:30:46;;;;;;;11.07;9.90;;;;;;;11.57;85.36;99283.69;5053979;28;20036;-72
2023/10/04 03:33:12;;;;;;;8.60;7.70;;;;;;;11.65;85.35;99288.75;5070285;28;20028;-69
2023/10/04 03:35:39;;;;;;;10.15;8.93;;;;;;;11.60;85.34;99275.94;5052324;28;20028;-70
2023/10/04 03:38:08;;;;;;;11.32;9.25;;;;;;;11.62;85.39;99283.84;5048829;28;20028;-73
2023/10/04 03:40:37;;;;;;;9.85;8.23;;;;;;;11.45;85.33;99258.50;5033752;28;20078;-73
2023/10/04 03:43:07;;;;;;;11.25;8.40;;;;;;;11.66;85.42;99293.97;5054428;28;20399;-73
2023/10/04 03:45:35;;;;;;;10.30;8.23;;;;;;;11.61;85.19;99279.47;5053536;28;20040;-73
2023/10/04 03:48:01;;;;;;;12.18;9.07;;;;;;;11.54;85.63;99270.63;5049897;28;20107;-73
2023/10/04 03:50:30;;;;;;;13.20;9.25;;;;;;;11.65;85.45;99294.16;5036948;28;20572;-73
2023/10/04 03:52:59;;;;;;;11.50;10.15;;;;;;;11.58;85.22;99290.72;5034212;28;20052;-73
2023/10/04 03:55:27;;;;;;;9.88;8.80;;;;;;;11.49;84.82;99275.88;5042183;28;20067;-71
2023/10/04 03:57:55;;;;;;;11.85;9.68;;;;;;;11.54;84.90;99286.81;5048679;28;20071;-73
2023/10/04 04:00:23;;;;;;;11.80;9.25;;;;;;;11.52;85.29;99288.91;5026202;28;20033;-73
2023/10/04 04:02:52;;;;;;;10.23;8.23;;;;;;;11.53;84.98;99287.84;5049756;28;20489;-72
2023/10/04 04:05:23;;;;;;;13.80;10.52;;;;;;;11.36;84.71;99267.91;5042949;28;20033;-73
2023/10/04 04:07:48;;;;;;;7.82;7.03;;;;;;;11.37;84.43;99273.09;5040717;28;20032;-73
2023/10/04 04:10:14;;;;;;;12.70;9.88;;;;;;;11.36;84.70;99267.91;5036862;28;20031;-73
2023/10/04 04:12:41;;;;;;;16.08;11.60;;;;;;;11.35;84.61;99268.97;5053452;28;20033;-73
2023/10/04 04:15:08;;;;;;;13.38;11.57;;;;;;;11.32;84.44;99266.72;5033768;28;20028;-73
2023/10/04 04:17:37;;;;;;;18.13;13.60;;;;;;;11.26;84.53;99289.19;5036354;28;20499;-73
2023/10/04 04:20:08;;;;;;;15.43;12.18;;;;;;;11.20;84.50;99295.47;5036559;28;20611;-71
2023/10/04 04:22:34;;;;;;;41.17;17.38;;;;;;;11.05;85.04;99288.53;5053110;28;20040;-71
2023/10/04 04:25:00;;;;;;;20.88;15.30;;;;;;;10.87;85.59;99303.81;5053191;28;20515;-70
2023/10/04 04:27:27;;;;;;;17.42;15.23;;;;;;;10.80;85.54;99292.28;5070829;28;20037;-71
2023/10/04 04:29:53;;;;;;;19.27;14.80;;;;;;;10.69;85.80;99282.22;5031434;28;20029;-73
2023/10/04 04:32:26;;;;;;;19.55;15.50;;;;;;;10.70;86.10;99290.06;5036758;28;20519;-73
2023/10/04 04:34:54;;;;;;;20.13;15.57;;;;;;;10.81;86.00;99285.81;5036187;28;20036;-73
2023/10/04 04:37:20;;;;;;;14.45;12.93;;;;;;;10.76;86.43;99291.88;5032724;28;20017;-73
2023/10/04 04:39:45;;;;;;;22.02;15.02;;;;;;;10.69;86.15;99283.00;5068467;28;20044;-71
2023/10/04 04:42:12;;;;;;;21.73;14.32;;;;;;;10.64;86.64;99301.69;5053694;28;20029;-69
2023/10/04 04:44:40;;;;;;;15.90;13.93;;;;;;;10.54;85.60;99281.69;5052503;28;20101;-70
2023/10/04 04:47:06;;;;;;;22.17;12.60;;;;;;;10.51;85.68;99291.00;5056453;28;20556;-71
2023/10/04 04:49:32;;;;;;;13.68;11.75;;;;;;;10.53;86.29;99294.31;5039924;28;20033;-70
2023/10/04 04:51:59;;;;;;;16.42;12.02;;;;;;;10.73;86.63;99295.03;5056611;28;20031;-71
2023/10/04 04:54:24;;;;;;;13.98;12.27;;;;;;;10.80;86.82;99300.34;5073785;28;20450;-70
2023/10/04 04:56:50;;;;;;;13.75;11.75;;;;;;;10.84;87.93;99306.94;5072709;28;20024;-70
2023/10/04 04:59:21;;;;;;;14.98;12.48;;;;;;;10.84;87.95;99291.63;5056448;28;20185;-70
2023/10/04 05:01:46;;;;;;;16.05;12.77;;;;;;;10.84;88.13;99299.69;5048271;28;20036;-71
2023/10/04 05:04:12;;;;;;;18.85;13.38;;;;;;;10.86;89.25;99305.69;5056251;28;20093;-70
2023/10/04 05:06:39;;;;;;;18.88;13.18;;;;;;;10.92;88.81;99296.72;5056152;28;20536;-73
2023/10/04 05:09:05;;;;;;;14.82;12.43;;;;;;;10.90;89.12;99290.72;5056569;28;20078;-70
2023/10/04 05:11:30;;;;;;;14.95;12.73;;;;;;;11.03;89.25;99306.81;5056586;28;20028;-71
2023/10/04 05:13:56;;;;;;;16.95;13.20;;;;;;;11.00;89.16;99306.41;5074351;28;20035;-71
2023/10/04 05:16:22;;;;;;;14.45;12.32;;;;;;;11.08;89.19;99317.72;5039172;28;20047;-71
2023/10/04 05:18:47;;;;;;;14.85;12.65;;;;;;;11.06;89.35;99310.94;5056207;28;20020;-71
2023/10/04 05:21:14;;;;;;;13.70;11.15;;;;;;;10.96;89.28;99299.81;5052923;28;20772;-71
2023/10/04 05:23:39;;;;;;;15.90;12.88;;;;;;;11.10;89.12;99312.97;5050995;28;20439;-71
2023/10/04 05:26:05;;;;;;;14.65;12.07;;;;;;;11.05;89.42;99304.72;5047085;28;20040;-71
2023/10/04 05:28:31;;;;;;;15.27;12.07;;;;;;;11.13;89.40;99312.50;5074052;28;20025;-73
2023/10/04 05:30:57;;;;;;;15.00;10.95;;;;;;;11.18;89.27;99300.25;5052928;28;20043;-72
2023/10/04 05:33:23;;;;;;;13.75;10.95;;;;;;;11.12;89.10;99283.09;5021004;28;20115;-73
2023/10/04 05:35:53;;;;;;;14.88;12.05;;;;;;;11.30;89.30;99301.16;5056016;28;20047;-72
2023/10/04 05:38:19;;;;;;;12.90;11.52;;;;;;;11.22;89.04;99287.97;5056691;28;20044;-73
2023/10/04 05:40:46;;;;;;;18.35;12.05;;;;;;;11.40;88.82;99314.97;5073782;28;20387;-72
2023/10/04 05:43:13;;;;;;;16.42;11.43;;;;;;;11.29;88.76;99296.84;5055647;28;20475;-72
2023/10/04 05:45:42;;;;;;;15.27;11.48;;;;;;;11.38;88.86;99298.19;5039235;28;20050;-73
2023/10/04 05:48:10;;;;;;;15.27;11.80;;;;;;;11.44;88.42;99303.50;5073441;28;20038;-72
2023/10/04 05:50:36;;;;;;;13.85;11.73;;;;;;;11.59;88.40;99322.03;5022830;28;20035;-70
2023/10/04 05:53:06;;;;;;;14.93;10.93;;;;;;;11.56;88.92;99319.78;5051264;28;20120;-72
2023/10/04 05:55:32;;;;;;;14.10;11.10;;;;;;;11.56;88.67;99314.38;5049160;28;20066;-72
2023/10/04 05:57:57;;;;;;;16.08;10.88;;;;;;;11.68;88.53;99334.22;5071982;28;20024;-71
2023/10/04 06:00:24;;;;;;;14.00;10.30;;;;;;;11.69;88.50;99327.78;5055636;28;20407;-72
2023/10/04 06:02:55;;;;;;;13.82;10.48;;;;;;;11.83;87.86;99329.31;5035613;28;20112;-71
2023/10/04 06:05:22;;;;;;;11.95;10.23;;;;;;;11.87;87.67;99335.06;5051001;28;20516;-73
2023/10/04 06:07:50;;;;;;;13.95;10.57;;;;;;;11.94;88.06;99342.03;5051630;28;20021;-72
2023/10/04 06:10:16;;;;;;;13.18;8.90;;;;;;;11.95;87.82;99340.97;5049413;28;20123;-71
2023/10/04 06:12:44;;;;;;;13.32;10.25;;;;;;;12.05;87.87;99338.59;5038514;28;20111;-71
2023/10/04 06:15:10;;;;;;;11.23;9.80;;;;;;;12.16;87.41;99339.72;5055138;28;20039;-71
2023/10/04 06:17:42;;;;;;;12.40;10.27;;;;;;;12.24;87.51;99340.22;5034843;28;20020;-71
2023/10/04 06:20:32;;;;;;;12.85;10.95;;;;;;;12.24;87.04;99332.13;5067374;28;20032;-72
2023/10/04 06:23:05;;;;;;;13.40;10.45;;;;;;;12.21;87.01;99327.16;5051994;28;20112;-72
2023/10/04 06:25:33;;;;;;;15.02;10.88;;;;;;;12.29;87.18;99332.28;5051130;28;20052;-72
2023/10/04 06:28:00;;;;;;;16.60;10.70;;;;;;;12.26;87.05;99335.41;5047539;28;20029;-71
2023/10/04 06:30:29;;;;;;;11.43;10.10;;;;;;;12.40;86.84;99342.31;5055001;28;20472;-72
2023/10/04 06:33:05;;;;;;;16.35;10.98;;;;;;;12.24;86.76;99321.31;5035136;28;20024;-71
2023/10/04 06:35:32;;;;;;;13.68;10.25;;;;;;;12.37;87.28;99337.34;5042930;28;20043;-72
2023/10/04 06:38:03;;;;;;;13.57;10.20;;;;;;;12.45;86.75;99339.75;5052649;28;20032;-74
2023/10/04 06:40:31;;;;;;;11.07;9.60;;;;;;;12.31;86.51;99323.94;5051474;28;20500;-72
2023/10/04 06:42:57;;;;;;;15.18;10.20;;;;;;;12.29;87.04;99339.53;5051293;28;20116;-72
2023/10/04 06:45:26;;;;;;;14.55;10.32;;;;;;;12.34;87.01;99340.53;5054557;28;20047;-69
2023/10/04 06:47:55;;;;;;;12.32;10.00;;;;;;;12.46;86.74;99348.69;5072149;28;20039;-73
2023/10/04 06:50:23;;;;;;;13.75;10.27;;;;;;;12.59;86.73;99363.88;5054663;28;20043;-72
2023/10/04 06:52:50;;;;;;;12.35;9.88;;;;;;;12.46;85.99;99349.47;5072409;28;20472;-72
2023/10/04 06:55:17;;;;;;;13.65;10.13;;;;;;;12.64;86.18;99369.41;5051280;28;20044;-72
2023/10/04 06:57:44;;;;;;;11.85;9.15;;;;;;;12.69;86.12;99364.16;5038458;28;20031;-72
2023/10/04 07:00:15;;;;;;;12.77;9.93;;;;;;;12.96;85.87;99373.53;5054594;28;20123;-72
2023/10/04 07:02:45;;;;;;;17.55;12.85;;;;;;;12.89;85.76;99364.69;5053989;28;20439;-74
2023/10/04 07:05:19;;;;;;;16.08;13.40;;;;;;;13.05;85.36;99364.03;5034626;28;20033;-75
2023/10/04 07:07:49;;;;;;;15.55;11.35;;;;;;;13.18;85.39;99366.56;5034534;28;20033;-75
2023/10/04 07:10:15;;;;;;;13.15;9.55;;;;;;;13.30;85.64;99375.53;5051648;28;20048;-75
2023/10/04 07:12:44;;;;;;;11.68;9.32;;;;;;;13.38;85.30;99383.31;5034469;28;20027;-75
2023/10/04 07:15:10;;;;;;;16.05;9.93;;;;;;;13.29;85.17;99378.47;5029185;28;20136;-75
2023/10/04 07:17:38;;;;;;;13.07;8.75;;;;;;;13.34;85.46;99371.31;5050734;28;20448;-75
2023/10/04 07:20:07;;;;;;;10.93;9.48;;;;;;;13.54;84.61;99387.19;5033366;28;20045;-75
2023/10/04 07:22:32;;;;;;;12.50;9.25;;;;;;;13.50;84.57;99391.44;5071345;28;20480;-73
2023/10/04 07:24:58;;;;;;;13.18;10.15;;;;;;;13.49;84.37;99400.63;5037759;28;20047;-70
2023/10/04 07:27:24;;;;;;;12.52;9.07;;;;;;;13.48;83.95;99398.97;5053458;28;20028;-70
2023/10/04 07:29:50;;;;;;;11.55;9.95;;;;;;;13.44;83.50;99393.19;5054014;28;20459;-71
2023/10/04 07:32:16;;;;;;;11.30;9.45;;;;;;;13.43;83.70;99396.13;5054011;28;20035;-70
2023/10/04 07:34:42;;;;;;;14.15;10.57;;;;;;;13.39;83.42;99401.19;5037181;28;20040;-72
2023/10/04 07:37:08;;;;;;;12.98;10.48;;;;;;;13.34;83.84;99398.38;5071858;28;20025;-75
2023/10/04 07:39:34;;;;;;;14.73;11.20;;;;;;;13.36;84.11;99390.84;5038085;28;20044;-75
2023/10/04 07:41:59;;;;;;;12.88;9.65;;;;;;;13.33;83.78;99396.69;5054756;28;20107;-75
2023/10/04 07:44:26;;;;;;;16.83;12.95;;;;;;;13.14;84.02;99387.00;5037938;28;20136;-74
2023/10/04 07:46:51;;;;;;;21.88;15.18;;;;;;;13.28;83.45;99401.19;5071846;28;20443;-75
2023/10/04 07:49:17;;;;;;;19.50;12.73;;;;;;;13.25;83.42;99413.28;5049825;28;20104;-75
2023/10/04 07:51:43;;;;;;;13.20;11.73;;;;;;;13.09;83.38;99400.44;5054137;28;20082;-73
2023/10/04 07:54:09;;;;;;;13.40;11.02;;;;;;;12.94;83.97;99399.97;5037810;28;20040;-75
2023/10/04 07:56:34;;;;;;;12.90;10.10;;;;;;;12.93;83.84;99414.53;5054245;28;20032;-75
2023/10/04 07:59:01;;;;;;;14.95;10.20;;;;;;;12.81;84.48;99414.50;5037645;28;20040;-75
2023/10/04 08:01:26;;;;;;;12.90;9.98;;;;;;;12.53;84.42;99379.16;5072180;28;20040;-75
2023/10/04 08:03:52;;;;;;;14.75;11.00;;;;;;;12.67;85.74;99390.59;5054235;28;20032;-75
2023/10/04 08:06:18;;;;;;;12.32;9.48;;;;;;;12.75;84.96;99382.16;5053654;28;20099;-75
2023/10/04 08:08:45;;;;;;;13.25;9.40;;;;;;;12.88;84.95;99384.69;5054016;28;20036;-73
2023/10/04 08:11:11;;;;;;;13.32;9.75;;;;;;;13.19;85.12;99422.31;5054524;28;20553;-75
2023/10/04 08:13:38;;;;;;;12.35;9.75;;;;;;;13.17;85.03;99408.19;5054017;28;20055;-75
2023/10/04 08:16:04;;;;;;;12.52;8.93;;;;;;;13.28;84.61;99426.31;5057051;28;20036;-76
2023/10/04 08:18:29;;;;;;;10.82;9.20;;;;;;;13.20;84.60;99413.16;5058153;28;20039;-74
2023/10/04 08:20:55;;;;;;;11.38;8.57;;;;;;;13.39;84.69;99417.44;5041577;28;20058;-75
2023/10/04 08:23:21;;;;;;;10.75;9.32;;;;;;;13.31;84.74;99389.88;5041288;28;20067;-75
2023/10/04 08:25:49;;;;;;;11.30;8.48;;;;;;;13.44;84.09;99397.78;5057913;28;20073;-75
2023/10/04 08:28:15;;;;;;;12.05;9.30;;;;;;;13.59;84.40;99427.91;5075247;28;20039;-74
2023/10/04 08:30:40;;;;;;;13.73;7.80;;;;;;;13.65;83.76;99422.38;5053921;28;20021;-74
2023/10/04 08:33:08;;;;;;;9.68;6.80;;;;;;;13.64;82.98;99399.09;5070448;28;20035;-74
2023/10/04 08:35:36;;;;;;;10.25;7.55;;;;;;;13.76;82.91;99405.34;5054740;28;20025;-75
2023/10/04 08:38:05;;;;;;;9.63;6.80;;;;;;;14.00;82.34;99427.00;5053624;28;20036;-75
2023/10/04 08:40:35;;;;;;;13.77;7.25;;;;;;;13.95;81.93;99426.88;5054296;28;20412;-74
2023/10/04 08:43:01;;;;;;;10.20;6.30;;;;;;;13.75;81.57;99400.97;5038141;28;20032;-75
2023/10/04 08:45:35;;;;;;;11.27;6.00;;;;;;;13.98;81.76;99400.16;5075256;28;20438;-75
2023/10/04 08:48:01;;;;;;;9.50;5.43;;;;;;;14.37;80.57;99401.31;5056919;28;20516;-73
2023/10/04 08:50:38;;;;;;;9.88;5.53;;;;;;;14.39;80.00;99413.56;5038007;28;20049;-74
2023/10/04 08:53:19;;;;;;;12.05;6.22;;;;;;;14.48;80.22;99416.72;5074739;28;20059;-74
2023/10/04 08:55:48;;;;;;;9.18;5.28;;;;;;;14.58;79.65;99405.25;5057859;28;20108;-74
2023/10/04 08:58:15;;;;;;;9.10;5.45;;;;;;;14.49;79.21;99399.41;5057772;28;20040;-75
2023/10/04 09:00:43;;;;;;;8.10;4.68;;;;;;;14.66;78.65;99399.44;5058023;28;20039;-74
2023/10/04 09:03:10;;;;;;;7.43;4.28;;;;;;;14.76;78.61;99403.19;5041044;28;20020;-74
2023/10/04 09:05:36;;;;;;;8.02;3.95;;;;;;;14.82;78.32;99407.63;5038683;28;20481;-75
2023/10/04 09:08:04;;;;;;;8.73;3.80;;;;;;;14.83;77.88;99409.28;5035709;28;20021;-75
2023/10/04 09:10:32;;;;;;;7.70;3.90;;;;;;;14.88;77.18;99417.53;5038331;28;20481;-74
2023/10/04 09:12:59;;;;;;;7.07;3.45;;;;;;;14.87;76.22;99396.88;5055391;28;20019;-75
2023/10/04 09:15:24;;;;;;;7.05;3.33;;;;;;;14.77;76.20;99377.69;5053873;28;20507;-74
2023/10/04 09:17:57;;;;;;;7.18;3.20;;;;;;;15.07;75.36;99421.69;5038038;28;20036;-74
2023/10/04 09:20:32;;;;;;;7.25;3.90;;;;;;;15.14;75.84;99419.66;5040436;28;20454;-75
2023/10/04 09:23:00;;;;;;;8.35;3.60;;;;;;;15.25;75.44;99412.50;5032595;28;20045;-74
2023/10/04 09:25:36;;;;;;;6.47;3.20;;;;;;;15.14;75.32;99410.69;5052426;28;20021;-75
2023/10/04 09:28:02;;;;;;;;;;;;;;;14.86;75.40;99429.69;5029509;28;20086;-75
2023/10/04 09:30:28;;;;;;;11.23;3.80;;;;;;;15.07;75.18;99421.69;5050777;28;20330;-74
2023/10/04 09:32:53;;;;;;;8.32;3.47;;;;;;;14.91;75.21;99395.31;5056824;28;20055;-74
2023/10/04 09:35:19;;;;;;;8.00;3.22;;;;;;;15.16;74.47;99398.53;5056283;28;20097;-72
2023/10/04 09:37:46;;;;;;;7.80;2.78;;;;;;;15.44;73.91;99413.09;5039252;28;20032;-74
2023/10/04 09:40:13;;;;;;;7.85;2.90;;;;;;;15.39;73.66;99402.97;5056282;28;20032;-75
2023/10/04 09:42:51;;;;;;;6.40;3.15;;;;;;;15.48;73.33;99395.28;5056001;28;20064;-73
2023/10/04 09:45:20;;;;;;;4.35;2.38;;;;;;;15.50;71.90;99415.69;5052167;28;20571;-75
2023/10/04 09:47:46;;;;;;;6.13;3.05;;;;;;;15.38;71.56;99412.19;5050453;28;20134;-75
2023/10/04 09:50:23;;;;;;;6.45;2.75;;;;;;;15.45;71.57;99414.78;5052467;28;20033;-74
2023/10/04 09:52:48;;;;;;;6.65;2.70;;;;;;;15.44;71.01;99402.25;5069101;28;20037;-75
2023/10/04 09:55:14;;;;;;;9.10;2.90;;;;;;;15.62;71.37;99402.84;5073278;28;20019;-74
2023/10/04 09:57:42;;;;;;;7.38;2.78;;;;;;;15.77;70.25;99396.84;5035053;28;20033;-73
2023/10/04 10:00:17;;;;;;;6.15;2.78;;;;;;;15.59;70.66;99386.25;5046130;28;20021;-74
2023/10/04 10:02:52;;;;;;;7.82;2.70;;;;;;;15.67;70.65;99410.25;5052276;28;20037;-75
2023/10/04 10:05:23;;;;;;;7.97;2.50;;;;;;;15.23;70.97;99412.75;5045856;28;20041;-75
2023/10/04 10:07:51;;;;;;;10.35;2.75;;;;;;;15.56;70.39;99419.31;5042516;28;20051;-75
2023/10/04 10:10:19;;;;;;;6.70;2.42;;;;;;;15.49;70.62;99419.50;5052849;28;20027;-75
2023/10/04 10:12:45;;;;;;;5.55;2.65;;;;;;;15.45;70.41;99412.88;5052395;28;20043;-75
2023/10/04 10:15:13;;;;;;;6.22;2.50;;;;;;;15.45;69.74;99406.66;5015595;28;20396;-75
2023/10/04 10:17:40;;;;;;;4.35;2.47;;;;;;;15.69;69.81;99411.66;5054980;28;20036;-75
2023/10/04 10:20:09;;;;;;;6.75;2.60;;;;;;;16.10;69.79;99421.25;5056158;28;20043;-75
2023/10/04 10:22:42;;;;;;;8.40;2.65;;;;;;;16.14;68.87;99388.97;5033511;28;20060;-75
2023/10/04 10:25:14;;;;;;;5.15;2.40;;;;;;;16.57;68.14;99405.31;5055015;28;20048;-75
2023/10/04 10:27:41;;;;;;;6.32;2.65;;;;;;;16.65;67.59;99406.75;5055746;28;20029;-74
2023/10/04 10:30:11;;;;;;;7.38;2.67;;;;;;;16.80;67.77;99404.25;5055388;28;20021;-75
2023/10/04 10:32:48;;;;;;;4.45;2.47;;;;;;;16.58;67.72;99407.78;5035642;28;20112;-74
2023/10/04 10:35:13;;;;;;;4.20;2.55;;;;;;;16.44;68.31;99411.09;5054636;28;20444;-75
2023/10/04 10:37:39;;;;;;;6.65;3.13;;;;;;;16.27;68.03;99408.44;5053967;28;20063;-74
2023/10/04 10:40:13;;;;;;;6.18;2.45;;;;;;;16.17;68.02;99411.03;5073229;28;20044;-74
2023/10/04 10:43:10;;;;;;;5.53;2.45;;;;;;;16.10;68.47;99415.81;5055763;28;20485;-75
2023/10/04 10:45:35;;;;;;;4.60;2.58;;;;;;;16.01;68.79;99406.44;5071463;28;20404;-74
2023/10/04 10:48:02;;;;;;;5.03;2.40;;;;;;;16.04;68.73;99411.38;5037747;28;20025;-74
2023/10/04 10:50:35;;;;;;;4.78;2.97;;;;;;;15.81;68.97;99376.25;5046977;28;20037;-74
2023/10/04 10:53:13;;;;;;;4.28;2.30;;;;;;;15.82;68.44;99405.88;5033654;28;20071;-75
2023/10/04 10:55:40;;;;;;;8.18;2.60;;;;;;;15.74;68.55;99400.88;5032683;28;20094;-75
2023/10/04 10:58:08;;;;;;;7.50;2.67;;;;;;;15.71;68.05;99376.91;5038032;28;20024;-74
2023/10/04 11:00:37;;;;;;;6.47;3.13;;;;;;;16.05;68.09;99374.97;5038672;28;20033;-75
2023/10/04 11:03:09;;;;;;;6.90;2.60;;;;;;;16.43;67.81;99393.97;5072752;28;20456;-74
2023/10/04 11:05:35;;;;;;;4.70;2.05;;;;;;;16.55;66.88;99383.81;5055503;28;20532;-75
2023/10/04 11:08:01;;;;;;;4.78;2.00;;;;;;;16.55;65.45;99389.25;5055321;28;20024;-75
2023/10/04 11:10:27;;;;;;;3.28;1.98;;;;;;;16.44;65.25;99384.75;5050816;28;20090;-74
2023/10/04 11:12:55;;;;;;;7.03;2.72;;;;;;;16.38;65.45;99384.94;5071387;28;20017;-73
2023/10/04 11:15:23;;;;;;;6.78;2.40;;;;;;;16.57;65.95;99387.09;5053833;28;20086;-75
2023/10/04 11:17:49;;;;;;;4.60;2.40;;;;;;;16.70;64.98;99371.47;5038751;28;20047;-75
2023/10/04 11:20:17;;;;;;;4.60;2.20;;;;;;;16.91;64.87;99378.78;5054995;28;20040;-75
2023/10/04 11:22:44;;;;;;;2.50;1.85;;;;;;;16.95;64.55;99371.72;5055544;28;20098;-75
2023/10/04 11:25:11;;;;;;;7.32;3.00;;;;;;;16.97;63.79;99366.84;5054932;28;20477;-74
2023/10/04 11:27:37;;;;;;;3.65;1.73;;;;;;;16.97;63.41;99377.72;5054762;28;20476;-75
2023/10/04 11:30:04;;;;;;;3.70;2.00;;;;;;;16.82;62.74;99356.66;5038194;28;20028;-75